Time;durP1;ratioP1;P1;durP2;ratioP2;P2;SDS_P1;SDS_P2;PMS_P1;PMS_P2;Temp;Humidity;BMP_temperature;BMP_pressure;BME280_temperature;BME280_humidity;BME280_pressure;Samples;Min_cycle;Max_cycle;Signal;HPM_P1;HPM_P2
2021/07/21 00:01:25;;;;;;;24.73;22.17;;;16.60;78.10;;;;;;5050599;29;20479;-69
2021/07/21 00:03:57;;;;;;;25.02;22.05;;;16.60;78.10;;;;;;5049237;29;20045;-69
2021/07/21 00:06:29;;;;;;;24.15;21.65;;;16.50;77.80;;;;;;5051760;29;20040;-70
2021/07/21 00:09:03;;;;;;;24.83;22.17;;;16.50;78.20;;;;;;5050935;29;20053;-71
2021/07/21 00:14:25;;;;;;;23.75;21.30;;;16.40;78.60;;;;;;5050875;29;21371;-71
2021/07/21 00:17:01;;;;;;;23.67;21.27;;;16.30;78.80;;;;;;5047341;29;20056;-70
2021/07/21 00:22:24;;;;;;;25.23;22.60;;;16.30;78.50;;;;;;5049727;29;20131;-70
2021/07/21 00:24:56;;;;;;;23.70;21.25;;;16.30;78.90;;;;;;5050888;29;20076;-70
2021/07/21 00:27:28;;;;;;;24.35;21.73;;;16.20;78.70;;;;;;5045284;29;20041;-71
2021/07/21 00:30:00;;;;;;;25.52;21.95;;;16.30;78.00;;;;;;5030944;29;20041;-70
2021/07/21 00:32:32;;;;;;;24.15;21.75;;;16.30;77.80;;;;;;5049841;29;20052;-70
2021/07/21 00:35:06;;;;;;;24.25;21.73;;;16.30;78.80;;;;;;5031000;29;20105;-70
2021/07/21 00:37:38;;;;;;;24.15;21.70;;;16.20;78.70;;;;;;5048341;29;20452;-70
2021/07/21 00:40:13;;;;;;;24.40;21.80;;;16.20;78.50;;;;;;5049377;29;20511;-71
2021/07/21 00:42:46;;;;;;;24.85;22.52;;;16.20;78.70;;;;;;5032479;29;20053;-71
2021/07/21 00:45:18;;;;;;;23.45;21.05;;;16.10;79.00;;;;;;5034485;29;20075;-72
2021/07/21 00:47:54;;;;;;;25.85;22.50;;;16.00;78.80;;;;;;5034971;29;20118;-71
2021/07/21 00:50:27;;;;;;;26.05;22.58;;;16.00;79.20;;;;;;5048631;29;20052;-70
2021/07/21 00:53:00;;;;;;;23.42;21.05;;;16.00;78.70;;;;;;5049404;29;20075;-70
2021/07/21 00:55:33;;;;;;;23.70;21.20;;;16.00;78.60;;;;;;5034287;29;20048;-72
2021/07/21 00:58:05;;;;;;;23.92;21.23;;;16.00;79.40;;;;;;5049095;29;20057;-70
2021/07/21 01:00:37;;;;;;;25.02;22.52;;;16.00;78.10;;;;;;5039721;29;20400;-71
2021/07/21 01:03:09;;;;;;;23.92;21.42;;;16.00;78.60;;;;;;5020212;29;20120;-70
2021/07/21 01:05:44;;;;;;;25.58;22.88;;;15.90;79.80;;;;;;5047013;29;20135;-70
2021/07/21 01:08:19;;;;;;;24.35;21.85;;;15.80;79.50;;;;;;5019767;29;20056;-72
2021/07/21 01:11:44;;;;;;;24.77;22.20;;;15.80;79.90;;;;;;5021709;29;20045;-71
2021/07/21 01:14:41;;;;;;;24.30;21.92;;;15.60;80.50;;;;;;5048843;29;20048;-72
2021/07/21 01:17:21;;;;;;;24.58;21.98;;;15.60;80.80;;;;;;5030642;29;20562;-70
2021/07/21 01:20:34;;;;;;;24.48;21.92;;;15.70;80.80;;;;;;5031750;29;20044;-70
2021/07/21 01:23:17;;;;;;;23.33;20.83;;;15.70;80.70;;;;;;5047792;29;20059;-70
2021/07/21 01:26:11;;;;;;;24.20;21.63;;;15.70;80.20;;;;;;5036645;29;20092;-69
2021/07/21 01:28:50;;;;;;;24.87;21.90;;;15.70;79.90;;;;;;5047750;29;20044;-71
2021/07/21 01:31:33;;;;;;;24.08;21.58;;;15.70;79.80;;;;;;5027756;29;20096;-70
2021/07/21 01:34:09;;;;;;;23.40;21.08;;;15.70;80.70;;;;;;5046480;29;20087;-70
2021/07/21 01:36:50;;;;;;;25.25;21.95;;;15.60;80.70;;;;;;5045530;29;20048;-71
2021/07/21 01:39:28;;;;;;;25.20;22.60;;;15.70;80.50;;;;;;5030583;29;20059;-71
2021/07/21 01:42:04;;;;;;;24.67;22.25;;;15.70;79.70;;;;;;5031575;29;20064;-71
2021/07/21 01:44:42;;;;;;;22.98;20.65;;;15.60;80.60;;;;;;5047092;29;20105;-70
2021/07/21 01:47:22;;;;;;;24.10;21.70;;;15.60;80.20;;;;;;5037075;29;20052;-70
2021/07/21 01:49:55;;;;;;;23.02;20.70;;;15.50;80.60;;;;;;5046626;29;20036;-70
2021/07/21 01:52:31;;;;;;;24.58;21.85;;;15.50;80.00;;;;;;5032321;29;20045;-70
2021/07/21 01:55:06;;;;;;;24.05;21.52;;;15.50;80.50;;;;;;5029014;29;20055;-70
2021/07/21 01:57:47;;;;;;;24.08;21.48;;;15.40;81.30;;;;;;5047806;29;20052;-69
2021/07/21 02:00:30;;;;;;;24.10;21.73;;;15.40;81.60;;;;;;5028758;29;20068;-70
2021/07/21 02:03:02;;;;;;;23.65;21.35;;;15.30;80.50;;;;;;5047575;29;20044;-69
2021/07/21 02:05:53;;;;;;;24.67;22.08;;;15.30;81.80;;;;;;5036744;29;20041;-70
2021/07/21 02:08:27;;;;;;;24.27;21.67;;;15.20;82.40;;;;;;5034135;29;20049;-70
2021/07/21 02:11:12;;;;;;;24.88;22.38;;;15.10;82.40;;;;;;5031439;29;20044;-71
2021/07/21 02:13:45;;;;;;;23.73;21.33;;;15.00;82.40;;;;;;5036847;29;20052;-70
2021/07/21 02:16:53;;;;;;;24.23;20.10;;;15.00;82.60;;;;;;5034386;29;20048;-70
2021/07/21 02:19:33;;;;;;;24.50;21.90;;;15.00;82.30;;;;;;5027563;29;20053;-70
2021/07/21 02:22:19;;;;;;;25.17;22.45;;;15.00;82.10;;;;;;5048753;29;20049;-71
2021/07/21 02:25:07;;;;;;;24.23;21.70;;;15.10;82.20;;;;;;5045933;29;20053;-70
2021/07/21 02:27:45;;;;;;;24.13;21.42;;;15.10;81.90;;;;;;5028584;29;20135;-70
2021/07/21 02:30:19;;;;;;;23.83;21.42;;;15.10;82.50;;;;;;5015793;29;20049;-71
2021/07/21 02:33:03;;;;;;;23.35;20.85;;;15.10;82.60;;;;;;5045782;29;20037;-69
2021/07/21 02:35:36;;;;;;;23.45;21.05;;;15.10;82.60;;;;;;5029885;29;20044;-69
2021/07/21 02:38:08;;;;;;;22.23;19.95;;;15.10;82.20;;;;;;5045911;29;20139;-70
2021/07/21 02:40:48;;;;;;;23.48;21.08;;;15.00;82.00;;;;;;5042984;29;20090;-70
2021/07/21 02:43:26;;;;;;;23.80;21.30;;;15.00;82.60;;;;;;5032504;29;20404;-70
2021/07/21 02:46:05;;;;;;;24.10;21.27;;;14.90;82.20;;;;;;5048232;29;20427;-71
2021/07/21 02:48:41;;;;;;;23.85;21.25;;;14.90;82.10;;;;;;5044310;29;20482;-72
2021/07/21 02:51:24;;;;;;;22.40;20.20;;;15.00;81.80;;;;;;5037494;29;20400;-71
2021/07/21 02:54:17;;;;;;;24.88;21.08;;;14.90;81.40;;;;;;5038327;29;20794;-70
2021/07/21 02:57:12;;;;;;;23.48;20.98;;;14.90;81.60;;;;;;5046876;29;20048;-71
2021/07/21 02:59:55;;;;;;;24.30;21.80;;;14.90;81.00;;;;;;5046042;29;20045;-70
2021/07/21 03:02:30;;;;;;;22.48;19.75;;;14.90;81.10;;;;;;5046723;29;20048;-70
2021/07/21 03:05:05;;;;;;;24.02;21.50;;;15.00;81.70;;;;;;5035881;29;20049;-71
2021/07/21 03:07:50;;;;;;;22.98;20.52;;;14.90;81.90;;;;;;5043547;29;20065;-70
2021/07/21 03:10:26;;;;;;;22.30;20.10;;;14.80;81.70;;;;;;5029550;29;20100;-70
2021/07/21 03:13:20;;;;;;;23.75;21.23;;;14.80;82.20;;;;;;5039222;29;20041;-70
2021/07/21 03:15:56;;;;;;;25.00;21.37;;;14.70;82.80;;;;;;5047871;29;20045;-70
2021/07/21 03:18:46;;;;;;;23.83;21.45;;;14.70;83.30;;;;;;5044209;29;20056;-69
2021/07/21 03:21:21;;;;;;;23.60;21.10;;;14.60;83.40;;;;;;5019489;29;20047;-71
2021/07/21 03:24:03;;;;;;;23.85;21.52;;;14.70;83.00;;;;;;5030449;29;20056;-71
2021/07/21 03:27:13;;;;;;;23.23;20.88;;;14.70;82.50;;;;;;5042065;29;20415;-70
2021/07/21 03:30:23;;;;;;;23.90;21.40;;;14.70;82.40;;;;;;5025342;29;20084;-70
2021/07/21 03:33:06;;;;;;;23.95;21.25;;;14.70;82.50;;;;;;5028128;29;20314;-70
2021/07/21 03:35:46;;;;;;;24.85;21.25;;;14.70;82.00;;;;;;5029659;29;20053;-70
2021/07/21 03:38:22;;;;;;;23.00;20.60;;;14.80;82.20;;;;;;5047262;29;21094;-70
2021/07/21 03:41:10;;;;;;;23.15;20.70;;;14.70;82.60;;;;;;5033184;29;20049;-70
2021/07/21 03:43:44;;;;;;;23.58;21.15;;;14.70;82.20;;;;;;5030551;29;20053;-71
2021/07/21 03:46:22;;;;;;;23.10;20.80;;;14.70;82.10;;;;;;5046171;29;20108;-70
2021/07/21 03:48:57;;;;;;;24.33;21.73;;;14.70;81.90;;;;;;5034111;29;20044;-70
2021/07/21 03:51:45;;;;;;;23.52;21.02;;;14.60;81.80;;;;;;5019878;29;20052;-70
2021/07/21 03:54:39;;;;;;;22.65;20.23;;;14.60;81.90;;;;;;5026288;29;20470;-70
2021/07/21 03:57:25;;;;;;;23.80;21.40;;;14.60;81.60;;;;;;5050099;29;20053;-71
2021/07/21 03:59:58;;;;;;;23.05;20.70;;;14.60;81.20;;;;;;5049682;29;20052;-70
2021/07/21 04:02:35;;;;;;;23.55;20.88;;;14.60;81.10;;;;;;5038238;29;20063;-70
2021/07/21 04:05:14;;;;;;;23.40;20.63;;;14.50;80.80;;;;;;5049154;29;20129;-71
2021/07/21 04:07:48;;;;;;;23.50;20.53;;;14.60;81.10;;;;;;5048071;29;20522;-71
2021/07/21 04:10:22;;;;;;;24.13;20.85;;;14.60;81.50;;;;;;5049997;29;20308;-70
2021/07/21 04:12:55;;;;;;;23.33;20.95;;;14.60;81.80;;;;;;5049052;29;20112;-70
2021/07/21 04:15:37;;;;;;;21.20;18.90;;;14.60;81.50;;;;;;5034740;29;20041;-72
2021/07/21 04:18:21;;;;;;;23.55;20.95;;;14.60;81.30;;;;;;5033745;29;20136;-71
2021/07/21 04:20:54;;;;;;;23.30;20.70;;;14.60;81.50;;;;;;5040981;29;20590;-71
2021/07/21 04:23:27;;;;;;;22.40;19.80;;;14.60;81.60;;;;;;5035463;29;20052;-72
2021/07/21 04:26:01;;;;;;;21.92;19.42;;;14.60;81.40;;;;;;5044994;29;20131;-70
2021/07/21 04:28:34;;;;;;;21.67;19.38;;;14.60;81.00;;;;;;5049878;29;20542;-70
2021/07/21 04:31:08;;;;;;;21.88;19.58;;;14.60;81.00;;;;;;5047116;29;20055;-70
2021/07/21 04:33:43;;;;;;;21.60;19.38;;;14.60;81.20;;;;;;5031814;29;20049;-70
2021/07/21 04:36:16;;;;;;;22.88;19.95;;;14.70;80.90;;;;;;5046477;29;20056;-70
2021/07/21 04:38:55;;;;;;;21.70;19.38;;;14.70;81.20;;;;;;5045569;29;20527;-70
2021/07/21 04:41:34;;;;;;;22.55;19.67;;;14.70;81.40;;;;;;5048027;29;20048;-72
2021/07/21 04:44:18;;;;;;;24.58;19.63;;;14.80;81.90;;;;;;5049452;29;20135;-72
2021/07/21 04:46:59;;;;;;;22.30;20.10;;;14.80;82.30;;;;;;5047429;29;20486;-71
2021/07/21 04:49:38;;;;;;;23.30;20.77;;;14.80;82.40;;;;;;5035072;29;20100;-71
2021/07/21 04:52:15;;;;;;;22.30;19.90;;;14.80;81.90;;;;;;5039053;29;20822;-70
2021/07/21 04:54:49;;;;;;;21.65;19.35;;;14.90;82.20;;;;;;5047807;29;20044;-69
2021/07/21 04:57:24;;;;;;;22.42;20.13;;;15.00;81.10;;;;;;5045909;29;20132;-71
2021/07/21 05:00:16;;;;;;;24.25;20.42;;;15.10;82.00;;;;;;5047483;29;20057;-72
2021/07/21 05:02:57;;;;;;;22.88;20.58;;;15.20;82.80;;;;;;5016689;29;20071;-71
2021/07/21 05:05:33;;;;;;;22.48;20.17;;;15.30;82.20;;;;;;5031162;29;20124;-73
2021/07/21 05:08:07;;;;;;;22.42;20.10;;;15.30;83.90;;;;;;5039876;29;20053;-71
2021/07/21 05:10:46;;;;;;;23.75;21.13;;;15.40;83.50;;;;;;5029592;29;20041;-71
2021/07/21 05:13:21;;;;;;;22.08;19.77;;;15.50;83.00;;;;;;5046326;29;20049;-70
2021/07/21 05:15:54;;;;;;;22.05;19.80;;;15.60;82.20;;;;;;5019793;29;20068;-72
2021/07/21 05:18:27;;;;;;;21.52;19.33;;;15.70;82.30;;;;;;5046695;29;20066;-73
2021/07/21 05:21:05;;;;;;;23.33;20.80;;;15.90;82.10;;;;;;5033958;29;20286;-72
2021/07/21 05:23:39;;;;;;;21.48;19.38;;;16.00;81.40;;;;;;5032426;29;20106;-71
2021/07/21 05:26:12;;;;;;;22.38;20.00;;;16.10;80.90;;;;;;5044929;29;20076;-71
2021/07/21 05:28:51;;;;;;;22.47;20.17;;;16.20;81.80;;;;;;5036877;29;20067;-72
2021/07/21 05:31:48;;;;;;;23.27;20.98;;;16.20;80.90;;;;;;5046510;29;20731;-71
2021/07/21 05:34:29;;;;;;;23.45;20.40;;;16.40;81.00;;;;;;5046783;29;20045;-70
2021/07/21 05:37:17;;;;;;;24.60;22.08;;;16.40;81.30;;;;;;5028742;29;20052;-70
2021/07/21 05:39:59;;;;;;;26.13;21.88;;;16.50;80.70;;;;;;5035938;29;20056;-70
2021/07/21 05:42:51;;;;;;;22.67;20.48;;;16.60;80.70;;;;;;5047679;29;20045;-70
2021/07/21 05:45:24;;;;;;;22.80;20.50;;;16.70;80.30;;;;;;5027627;29;20048;-71
2021/07/21 05:47:56;;;;;;;23.08;20.33;;;16.80;80.20;;;;;;5029283;29;20578;-70
2021/07/21 05:50:28;;;;;;;22.63;20.30;;;16.90;79.90;;;;;;5033177;29;20052;-70
2021/07/21 05:53:02;;;;;;;21.85;19.65;;;17.00;80.00;;;;;;5032251;29;20714;-70
2021/07/21 05:55:52;;;;;;;23.08;20.98;;;17.10;80.30;;;;;;5049374;29;20100;-71
2021/07/21 05:58:27;;;;;;;22.63;20.23;;;17.20;79.70;;;;;;5031181;29;20140;-70
2021/07/21 06:00:59;;;;;;;24.02;21.58;;;17.30;79.40;;;;;;5031172;29;20049;-70
2021/07/21 06:03:37;;;;;;;24.13;21.63;;;17.40;79.40;;;;;;5031937;29;20052;-70
2021/07/21 06:06:29;;;;;;;23.83;21.42;;;17.50;79.50;;;;;;5049053;29;20051;-71
2021/07/21 06:09:05;;;;;;;28.50;20.95;;;17.70;79.10;;;;;;5037329;29;20674;-70
2021/07/21 06:11:48;;;;;;;23.17;20.77;;;17.80;78.70;;;;;;5033591;29;20064;-71
2021/07/21 06:14:23;;;;;;;22.90;20.40;;;17.90;78.70;;;;;;5045015;29;20431;-71
2021/07/21 06:17:02;;;;;;;23.10;20.90;;;18.00;79.20;;;;;;5029635;29;20519;-71
2021/07/21 06:19:49;;;;;;;23.50;21.25;;;18.20;78.50;;;;;;5036423;29;20074;-71
2021/07/21 06:22:24;;;;;;;23.02;20.70;;;18.20;78.50;;;;;;5027981;29;20052;-71
2021/07/21 06:25:10;;;;;;;23.08;20.77;;;18.30;77.80;;;;;;5030963;29;20052;-71
2021/07/21 06:28:03;;;;;;;22.48;20.38;;;18.40;77.60;;;;;;5047238;29;20048;-71
2021/07/21 06:30:38;;;;;;;22.15;20.02;;;18.50;77.90;;;;;;5032027;29;20152;-71
2021/07/21 06:33:17;;;;;;;23.17;21.02;;;18.70;77.30;;;;;;5043287;29;20526;-71
2021/07/21 06:35:50;;;;;;;23.85;21.48;;;18.70;77.10;;;;;;5021664;29;20270;-72
2021/07/21 06:38:24;;;;;;;23.63;21.33;;;18.80;77.00;;;;;;5035199;29;20108;-71
2021/07/21 06:41:25;;;;;;;24.58;21.65;;;18.90;77.30;;;;;;5033718;29;20053;-70
2021/07/21 06:44:00;;;;;;;22.88;20.67;;;19.10;76.50;;;;;;5048286;29;20797;-72
2021/07/21 06:46:44;;;;;;;23.15;20.88;;;19.20;76.50;;;;;;5043845;29;20044;-71
2021/07/21 06:49:23;;;;;;;25.17;22.58;;;19.30;75.40;;;;;;5031740;29;20055;-70
2021/07/21 06:51:55;;;;;;;25.15;22.85;;;19.30;75.20;;;;;;5044662;29;20609;-70
2021/07/21 06:54:35;;;;;;;;;;;19.40;75.40;;;;;;5048418;29;20055;-69
2021/07/21 06:57:25;;;;;;;25.13;22.80;;;19.50;76.00;;;;;;5047065;29;19934;-70
2021/07/21 07:00:16;;;;;;;25.63;23.08;;;19.70;75.00;;;;;;5048257;29;20087;-69
2021/07/21 07:03:23;;;;;;;26.33;23.73;;;19.70;74.90;;;;;;5045217;29;20522;-71
2021/07/21 07:06:11;;;;;;;26.33;23.83;;;19.90;74.30;;;;;;5047529;29;20056;-71
2021/07/21 07:09:01;;;;;;;24.60;22.33;;;20.00;74.70;;;;;;5047139;29;20519;-72
2021/07/21 07:11:33;;;;;;;25.77;23.40;;;20.10;74.60;;;;;;5048766;29;20049;-71
2021/07/21 07:14:08;;;;;;;26.27;23.50;;;20.20;74.50;;;;;;5020171;29;20405;-72
2021/07/21 07:16:40;;;;;;;25.50;23.10;;;20.30;73.60;;;;;;5046490;29;20041;-71
2021/07/21 07:19:12;;;;;;;25.83;23.30;;;20.40;74.30;;;;;;5048073;29;20109;-72
2021/07/21 07:21:44;;;;;;;25.50;23.10;;;20.50;72.00;;;;;;5047714;29;20073;-71
2021/07/21 07:24:17;;;;;;;24.63;22.23;;;20.60;71.60;;;;;;5051869;29;20064;-71
2021/07/21 07:26:49;;;;;;;24.70;22.50;;;20.70;71.40;;;;;;5047457;29;20131;-73
2021/07/21 07:29:21;;;;;;;25.63;23.17;;;20.80;70.00;;;;;;5032889;29;20052;-70
2021/07/21 07:31:54;;;;;;;25.40;23.00;;;20.90;70.00;;;;;;5038898;29;20115;-71
2021/07/21 07:34:26;;;;;;;24.27;22.08;;;21.00;71.30;;;;;;5050092;29;20041;-70
2021/07/21 07:36:58;;;;;;;25.05;22.58;;;21.10;70.30;;;;;;5047986;29;20105;-69
2021/07/21 07:39:30;;;;;;;24.75;22.45;;;21.10;71.10;;;;;;5049583;29;20170;-70
2021/07/21 07:42:03;;;;;;;25.30;22.77;;;21.30;70.50;;;;;;5048390;29;20085;-71
2021/07/21 07:44:35;;;;;;;24.40;22.13;;;21.30;67.50;;;;;;5035382;29;20145;-71
2021/07/21 07:47:07;;;;;;;24.10;21.90;;;21.40;68.70;;;;;;5050986;29;20052;-71
2021/07/21 07:49:40;;;;;;;24.60;22.23;;;21.50;68.70;;;;;;5049955;29;20455;-72
2021/07/21 07:52:12;;;;;;;24.60;22.40;;;21.60;69.60;;;;;;5049214;29;20451;-72
2021/07/21 07:54:45;;;;;;;24.23;22.08;;;21.70;67.40;;;;;;5048724;29;20807;-72
2021/07/21 07:57:17;;;;;;;24.92;22.63;;;21.70;68.10;;;;;;5051602;29;20765;-71
2021/07/21 07:59:49;;;;;;;25.27;23.02;;;21.90;68.60;;;;;;5052339;29;20045;-72
2021/07/21 08:02:21;;;;;;;24.85;22.70;;;21.90;67.90;;;;;;5047076;29;20049;-72
2021/07/21 08:04:53;;;;;;;26.60;24.05;;;22.10;67.30;;;;;;5051107;29;20045;-72
2021/07/21 08:07:29;;;;;;;26.23;23.70;;;22.20;70.00;;;;;;5050189;29;20139;-71
2021/07/21 08:10:03;;;;;;;25.63;23.38;;;22.30;70.90;;;;;;5047176;29;20052;-72
2021/07/21 08:12:36;;;;;;;25.65;23.45;;;22.40;67.80;;;;;;5049126;29;20045;-71
2021/07/21 08:15:09;;;;;;;24.80;22.70;;;22.40;66.30;;;;;;5048856;29;20789;-71
2021/07/21 08:17:42;;;;;;;25.58;23.38;;;22.40;66.40;;;;;;5049257;29;20064;-71
2021/07/21 08:20:14;;;;;;;25.98;23.52;;;22.60;68.50;;;;;;5044840;29;20132;-72
2021/07/21 08:22:46;;;;;;;27.23;24.80;;;22.60;67.70;;;;;;5050673;29;20052;-71
2021/07/21 08:25:24;;;;;;;26.48;23.98;;;22.70;68.90;;;;;;5034260;29;20041;-72
2021/07/21 08:28:00;;;;;;;26.40;23.73;;;22.90;69.00;;;;;;5048398;29;20052;-72
2021/07/21 08:30:32;;;;;;;27.20;24.83;;;23.00;67.40;;;;;;5048952;29;20104;-71
2021/07/21 08:33:04;;;;;;;28.23;25.63;;;23.00;67.40;;;;;;5049679;29;21028;-72
2021/07/21 08:35:36;;;;;;;27.38;24.85;;;23.10;64.50;;;;;;5036926;29;20072;-71
2021/07/21 08:38:11;;;;;;;27.27;24.73;;;23.10;66.20;;;;;;5048939;29;20057;-71
2021/07/21 08:40:43;;;;;;;26.60;24.30;;;23.20;66.20;;;;;;5049857;29;20077;-72
2021/07/21 08:43:30;;;;;;;25.90;23.67;;;23.30;66.40;;;;;;5049156;29;20053;-72
2021/07/21 08:46:03;;;;;;;27.60;24.95;;;23.30;65.80;;;;;;5043702;29;20049;-71
2021/07/21 08:48:35;;;;;;;28.67;26.13;;;23.40;64.70;;;;;;5049148;29;21172;-71
2021/07/21 08:51:10;;;;;;;27.90;25.13;;;23.50;66.40;;;;;;5024203;29;20056;-71
2021/07/21 08:53:42;;;;;;;27.60;25.05;;;23.50;64.70;;;;;;5051661;29;20444;-71
2021/07/21 08:56:15;;;;;;;28.33;25.58;;;23.60;66.20;;;;;;5049707;29;20056;-71
2021/07/21 08:58:50;;;;;;;28.15;25.67;;;23.70;63.20;;;;;;5051205;29;20408;-72
2021/07/21 09:01:24;;;;;;;27.73;25.25;;;23.80;64.60;;;;;;5044773;29;20060;-71
2021/07/21 09:03:57;;;;;;;28.42;25.92;;;23.80;63.80;;;;;;5037759;29;20119;-71
2021/07/21 09:06:29;;;;;;;28.42;25.83;;;23.90;65.10;;;;;;5047423;29;20056;-71
2021/07/21 09:09:01;;;;;;;28.80;26.00;;;24.00;64.20;;;;;;5048126;29;20939;-72
2021/07/21 09:11:34;;;;;;;29.23;26.20;;;24.10;64.10;;;;;;5047886;29;20589;-71
2021/07/21 09:14:07;;;;;;;28.55;25.95;;;24.10;63.30;;;;;;5050609;29;20040;-72
2021/07/21 09:16:39;;;;;;;27.60;25.25;;;24.20;63.20;;;;;;5050394;29;20045;-72
2021/07/21 09:19:14;;;;;;;29.05;26.45;;;24.20;63.40;;;;;;5039949;29;20217;-72
2021/07/21 09:21:46;;;;;;;28.08;25.65;;;24.30;63.90;;;;;;5048194;29;20117;-71
2021/07/21 09:24:21;;;;;;;29.98;27.27;;;24.40;65.30;;;;;;5033562;29;20076;-71
2021/07/21 09:26:53;;;;;;;28.30;25.90;;;24.40;62.80;;;;;;5043003;29;20099;-70
2021/07/21 09:29:26;;;;;;;28.38;25.88;;;24.50;62.70;;;;;;5047559;29;20124;-72
2021/07/21 09:32:02;;;;;;;29.80;27.10;;;24.50;61.30;;;;;;5017147;29;20056;-72
2021/07/21 09:34:35;;;;;;;28.33;25.92;;;24.50;58.90;;;;;;5049828;29;20464;-72
2021/07/21 09:37:14;;;;;;;29.02;26.52;;;24.50;60.70;;;;;;5046187;29;20464;-72
2021/07/21 09:39:50;;;;;;;28.90;26.35;;;24.60;62.20;;;;;;5046610;29;20079;-71
2021/07/21 09:42:28;;;;;;;29.02;26.52;;;24.60;61.90;;;;;;5046278;29;20105;-72
2021/07/21 09:45:07;;;;;;;29.05;26.60;;;24.70;61.20;;;;;;5048728;29;20057;-73
2021/07/21 09:47:49;;;;;;;28.77;26.43;;;24.80;61.80;;;;;;5036294;29;20061;-72
2021/07/21 09:50:28;;;;;;;28.80;26.30;;;24.90;61.90;;;;;;5048402;29;20041;-72
2021/07/21 09:53:10;;;;;;;28.02;25.60;;;24.90;58.90;;;;;;5031840;29;20793;-73
2021/07/21 09:55:44;;;;;;;27.63;25.25;;;25.00;59.10;;;;;;5032336;29;20049;-72
2021/07/21 09:58:19;;;;;;;29.33;26.73;;;25.10;59.30;;;;;;5049930;29;20048;-72
2021/07/21 10:00:51;;;;;;;29.63;27.10;;;25.10;58.90;;;;;;5032952;29;20045;-72
2021/07/21 10:03:25;;;;;;;29.10;26.50;;;25.10;56.60;;;;;;5047594;29;20563;-72
2021/07/21 10:06:06;;;;;;;28.35;25.95;;;25.10;59.40;;;;;;5047594;29;20041;-74
2021/07/21 10:08:52;;;;;;;29.23;26.73;;;25.10;59.80;;;;;;5049669;29;20460;-74
2021/07/21 10:11:36;;;;;;;28.98;26.50;;;25.30;59.30;;;;;;5046812;29;20059;-72
2021/07/21 10:14:11;;;;;;;28.90;26.20;;;25.30;58.60;;;;;;5048722;29;20681;-74
2021/07/21 10:16:45;;;;;;;29.80;27.17;;;25.30;58.10;;;;;;5047879;29;20072;-72
2021/07/21 10:19:24;;;;;;;28.17;25.67;;;25.30;57.70;;;;;;5046733;29;20044;-73
2021/07/21 10:22:00;;;;;;;29.10;26.50;;;25.30;57.20;;;;;;5047777;29;20053;-72
2021/07/21 10:24:34;;;;;;;29.50;26.90;;;25.40;58.40;;;;;;5033821;29;20053;-73
2021/07/21 10:27:07;;;;;;;28.98;26.58;;;25.60;59.90;;;;;;5032320;29;20142;-73
2021/07/21 10:29:39;;;;;;;28.88;26.38;;;25.70;59.70;;;;;;5047469;29;20472;-73
2021/07/21 10:32:15;;;;;;;29.00;26.60;;;25.70;58.40;;;;;;5045806;29;20064;-73
2021/07/21 10:34:49;;;;;;;29.25;26.75;;;25.80;58.10;;;;;;5048797;29;20127;-72
2021/07/21 10:37:22;;;;;;;28.85;26.35;;;25.80;56.40;;;;;;5048545;29;20075;-73
2021/07/21 10:39:58;;;;;;;28.40;25.92;;;25.70;53.40;;;;;;5045602;29;20101;-73
2021/07/21 10:42:31;;;;;;;27.92;25.65;;;25.70;56.70;;;;;;5021176;29;20745;-72
2021/07/21 10:45:16;;;;;;;28.88;26.38;;;25.80;57.10;;;;;;5037940;29;20049;-72
2021/07/21 10:47:57;;;;;;;27.95;25.55;;;25.90;55.90;;;;;;5030886;29;20053;-72
2021/07/21 10:51:23;;;;;;;28.17;25.88;;;26.00;57.30;;;;;;5048572;29;20076;-74
2021/07/21 10:59:21;;;;;;;29.00;26.45;;;26.10;55.50;;;;;;5048683;29;20464;-72
2021/07/21 11:01:59;;;;;;;28.58;26.10;;;26.10;53.90;;;;;;5051079;29;20080;-72
2021/07/21 11:04:46;;;;;;;27.30;24.90;;;26.10;55.20;;;;;;5049396;29;20131;-72
2021/07/21 11:07:51;;;;;;;28.05;25.73;;;26.20;52.70;;;;;;5050467;29;20053;-72
2021/07/21 11:10:39;;;;;;;28.38;26.00;;;26.20;52.70;;;;;;5053462;29;20060;-71
2021/07/21 11:13:14;;;;;;;32.67;29.45;;;26.20;52.60;;;;;;5048191;29;20418;-72
2021/07/21 11:15:47;;;;;;;49.17;38.65;;;26.20;53.70;;;;;;5050631;29;20483;-72
2021/07/21 11:18:22;;;;;;;32.15;29.15;;;26.30;54.10;;;;;;5050682;29;20542;-73
2021/07/21 11:21:10;;;;;;;43.05;37.17;;;26.30;53.10;;;;;;5052153;29;20136;-73
2021/07/21 11:23:47;;;;;;;35.67;32.17;;;26.50;52.40;;;;;;5033739;29;20480;-72
2021/07/21 11:26:32;;;;;;;39.00;34.95;;;26.60;52.10;;;;;;5050937;29;20185;-73
2021/07/21 11:29:25;;;;;;;36.30;32.40;;;26.60;53.00;;;;;;5050375;29;20124;-73
2021/07/21 11:31:58;;;;;;;32.08;28.95;;;26.60;53.50;;;;;;5048914;29;20056;-72
2021/07/21 11:34:40;;;;;;;31.50;28.48;;;26.70;50.40;;;;;;5035516;29;20045;-73
2021/07/21 11:37:19;;;;;;;29.95;27.05;;;26.60;52.10;;;;;;5052502;29;20044;-73
2021/07/21 11:39:56;;;;;;;31.73;28.83;;;26.60;49.90;;;;;;5049825;29;20112;-72
2021/07/21 11:42:34;;;;;;;30.88;28.17;;;26.60;50.00;;;;;;5049974;29;20068;-72
2021/07/21 11:45:06;;;;;;;30.35;27.70;;;26.60;50.00;;;;;;5055806;29;20570;-72
2021/07/21 11:48:00;;;;;;;29.02;26.27;;;26.70;50.20;;;;;;5050085;29;20044;-73
2021/07/21 11:50:33;;;;;;;28.75;26.15;;;26.80;51.10;;;;;;5037211;29;20104;-72
2021/07/21 11:53:07;;;;;;;28.92;26.38;;;27.00;50.40;;;;;;5036948;29;20048;-73
2021/07/21 11:55:40;;;;;;;30.52;27.52;;;27.00;47.20;;;;;;5049925;29;20132;-74
2021/07/21 11:58:14;;;;;;;29.73;27.13;;;27.00;49.70;;;;;;5018424;29;20128;-73
2021/07/21 12:00:54;;;;;;;30.77;27.95;;;27.10;48.10;;;;;;5046818;29;20104;-73
2021/07/21 12:03:26;;;;;;;29.25;26.77;;;27.20;50.80;;;;;;5050389;29;20079;-74
2021/07/21 12:05:58;;;;;;;29.08;26.65;;;27.30;48.80;;;;;;5034270;29;20056;-73
2021/07/21 12:08:30;;;;;;;29.08;26.52;;;27.30;50.20;;;;;;5033958;29;20067;-73
2021/07/21 12:11:10;;;;;;;30.33;27.73;;;27.50;49.50;;;;;;5048709;29;20060;-73
2021/07/21 12:13:43;;;;;;;28.15;25.85;;;27.50;47.90;;;;;;5048105;29;20076;-72
2021/07/21 12:16:15;;;;;;;29.55;27.00;;;27.50;46.30;;;;;;5049112;29;20156;-73
2021/07/21 12:18:54;;;;;;;29.63;27.05;;;27.50;48.90;;;;;;5045930;29;20079;-73
2021/07/21 12:21:28;;;;;;;29.98;27.20;;;27.50;46.80;;;;;;5036092;29;20523;-73
2021/07/21 12:24:05;;;;;;;30.33;27.60;;;27.50;48.50;;;;;;5041546;29;20069;-75
2021/07/21 12:26:42;;;;;;;29.13;26.55;;;27.70;46.40;;;;;;5040550;29;20045;-73
2021/07/21 12:29:24;;;;;;;29.92;27.38;;;27.60;47.90;;;;;;5049446;29;20053;-74
2021/07/21 12:32:09;;;;;;;29.15;26.70;;;27.70;48.20;;;;;;5046788;29;20072;-74
2021/07/21 12:34:52;;;;;;;28.20;25.90;;;27.70;47.00;;;;;;5048685;29;20523;-73
2021/07/21 12:37:27;;;;;;;29.17;26.77;;;27.80;47.60;;;;;;5046101;29;20131;-73
2021/07/21 12:39:59;;;;;;;28.75;26.30;;;27.80;46.50;;;;;;5048485;29;20080;-73
2021/07/21 12:42:32;;;;;;;29.30;26.80;;;27.80;45.10;;;;;;5047760;29;20055;-74
2021/07/21 12:45:11;;;;;;;28.65;26.25;;;27.90;45.00;;;;;;5030672;29;20127;-74
2021/07/21 12:47:45;;;;;;;29.52;26.92;;;28.00;44.40;;;;;;5043718;29;20076;-74
2021/07/21 12:50:22;;;;;;;28.50;26.15;;;28.00;46.10;;;;;;5043872;29;20049;-74
2021/07/21 12:53:03;;;;;;;29.88;27.27;;;28.00;46.10;;;;;;5034900;29;20055;-74
2021/07/21 12:55:43;;;;;;;29.45;26.85;;;28.10;46.30;;;;;;5042314;29;20053;-73
2021/07/21 12:58:21;;;;;;;29.20;26.80;;;28.20;45.40;;;;;;5047432;29;20076;-74
2021/07/21 13:00:57;;;;;;;28.30;26.02;;;28.30;45.30;;;;;;5046449;29;20143;-74
2021/07/21 13:03:30;;;;;;;28.85;26.52;;;28.40;47.20;;;;;;5048268;29;20060;-74
2021/07/21 13:06:03;;;;;;;29.60;27.17;;;28.40;44.80;;;;;;5047546;29;20049;-73
2021/07/21 13:08:35;;;;;;;28.83;26.58;;;28.40;45.30;;;;;;5045146;29;20112;-73
2021/07/21 13:11:15;;;;;;;29.27;26.67;;;28.40;45.70;;;;;;5028520;29;20472;-73
2021/07/21 13:13:50;;;;;;;29.05;26.65;;;28.50;44.80;;;;;;5046555;29;20049;-73
2021/07/21 13:16:34;;;;;;;29.60;27.10;;;28.40;44.20;;;;;;5048375;29;20049;-74
2021/07/21 13:19:13;;;;;;;28.83;26.40;;;28.30;45.70;;;;;;5042338;29;20049;-73
2021/07/21 13:21:50;;;;;;;28.95;26.65;;;28.10;46.40;;;;;;5044414;29;20045;-72
2021/07/21 13:24:25;;;;;;;28.77;26.45;;;28.30;45.70;;;;;;5034714;29;20053;-74
2021/07/21 13:27:00;;;;;;;29.33;26.88;;;28.40;44.60;;;;;;5029011;29;20048;-73
2021/07/21 13:29:36;;;;;;;30.25;27.58;;;28.40;45.80;;;;;;5037466;29;20099;-74
2021/07/21 13:32:21;;;;;;;28.50;26.10;;;28.30;45.00;;;;;;5047415;29;20048;-72
2021/07/21 13:35:10;;;;;;;29.10;26.70;;;28.00;44.70;;;;;;5036112;29;20127;-73